TimeCDT,TemperatureF,Dew PointF,Humidity,Sea Level PressureIn,VisibilityMPH,Wind Direction,Wind SpeedMPH,Gust SpeedMPH,PrecipitationIn,Events,Conditions,WindDirDegrees,DateUTC
12:10 AM,69.8,64.4,83,29.96,10.0,Calm,Calm,-,N/A,,Clear,0,2013-06-14 05:10:00
12:30 AM,68.0,64.4,88,29.95,10.0,NNW,3.5,-,N/A,,Clear,330,2013-06-14 05:30:00
12:50 AM,68.0,64.4,88,29.95,10.0,WNW,4.6,-,N/A,,Clear,300,2013-06-14 05:50:00
1:10 AM,68.0,64.4,88,29.95,10.0,Calm,Calm,-,N/A,,Clear,0,2013-06-14 06:10:00
1:30 AM,66.2,64.4,94,29.96,10.0,Calm,Calm,-,N/A,,Clear,0,2013-06-14 06:30:00
1:50 AM,66.2,62.6,88,29.97,10.0,Calm,Calm,-,N/A,,Clear,0,2013-06-14 06:50:00
2:10 AM,64.4,62.6,94,29.97,10.0,Calm,Calm,-,N/A,,Clear,0,2013-06-14 07:10:00
2:30 AM,64.4,62.6,94,29.96,8.0,Calm,Calm,-,N/A,,Clear,0,2013-06-14 07:30:00
2:50 AM,64.4,62.6,94,29.96,5.0,North,3.5,-,N/A,,Clear,10,2013-06-14 07:50:00
3:10 AM,64.4,62.6,94,29.96,2.0,WNW,3.5,-,N/A,,Clear,300,2013-06-14 08:10:00
3:30 AM,64.4,62.6,94,29.96,7.0,NW,3.5,-,N/A,,Clear,310,2013-06-14 08:30:00
3:50 AM,64.4,62.6,94,29.96,6.0,North,3.5,-,N/A,,Clear,350,2013-06-14 08:50:00
4:10 AM,64.4,62.6,94,29.96,7.0,Calm,Calm,-,N/A,,Clear,0,2013-06-14 09:10:00
4:30 AM,64.4,62.6,94,29.97,5.0,Calm,Calm,-,N/A,,Clear,0,2013-06-14 09:30:00
4:50 AM,62.6,62.6,100,29.97,5.0,NNW,4.6,-,N/A,,Clear,330,2013-06-14 09:50:00
5:10 AM,64.4,62.6,94,29.98,10.0,NNW,5.8,-,N/A,,Clear,340,2013-06-14 10:10:00
5:30 AM,64.4,60.8,88,29.99,10.0,North,5.8,-,N/A,,Clear,350,2013-06-14 10:30:00
5:50 AM,62.6,60.8,94,29.99,10.0,North,3.5,-,N/A,,Clear,350,2013-06-14 10:50:00
6:10 AM,64.4,59.0,83,30.00,10.0,NNW,3.5,-,N/A,,Clear,340,2013-06-14 11:10:00
6:30 AM,64.4,60.8,88,30.00,10.0,NW,3.5,-,N/A,,Clear,320,2013-06-14 11:30:00
6:50 AM,64.4,60.8,88,30.00,10.0,NNW,3.5,-,N/A,,Clear,340,2013-06-14 11:50:00
7:10 AM,66.2,62.6,88,30.01,10.0,North,3.5,-,N/A,,Clear,10,2013-06-14 12:10:00
7:30 AM,68.0,60.8,78,30.02,10.0,North,4.6,-,N/A,,Clear,360,2013-06-14 12:30:00
7:50 AM,69.8,60.8,73,30.03,10.0,NNE,5.8,-,N/A,,Clear,30,2013-06-14 12:50:00
8:10 AM,71.6,59.0,64,30.03,10.0,NE,5.8,-,N/A,,Clear,40,2013-06-14 13:10:00
8:30 AM,73.4,57.2,57,30.03,10.0,ENE,8.1,-,N/A,,Clear,70,2013-06-14 13:30:00
8:50 AM,73.4,55.4,53,30.03,10.0,ENE,10.4,-,N/A,,Clear,60,2013-06-14 13:50:00
9:10 AM,75.2,55.4,50,30.03,10.0,NE,8.1,-,N/A,,Clear,40,2013-06-14 14:10:00
9:30 AM,77.0,57.2,50,30.04,10.0,NE,8.1,-,N/A,,Clear,50,2013-06-14 14:30:00
9:50 AM,75.2,55.4,50,30.05,10.0,NNE,5.8,-,N/A,,Clear,20,2013-06-14 14:50:00
2:10 PM,82.4,57.2,42,30.00,10.0,North,10.4,16.1,N/A,,Clear,10,2013-06-14 19:10:00
2:30 PM,82.4,55.4,39,30.00,10.0,NE,11.5,-,N/A,,Clear,50,2013-06-14 19:30:00
2:50 PM,82.4,57.2,42,30.00,10.0,NNE,9.2,19.6,N/A,,Clear,20,2013-06-14 19:50:00
3:10 PM,84.2,57.2,40,30.00,10.0,North,9.2,-,N/A,,Clear,360,2013-06-14 20:10:00
3:30 PM,82.4,57.2,42,29.99,10.0,ENE,11.5,-,N/A,,Clear,60,2013-06-14 20:30:00
3:50 PM,82.4,57.2,42,29.99,10.0,North,6.9,-,N/A,,Clear,350,2013-06-14 20:50:00
4:10 PM,82.4,59.0,45,29.98,10.0,North,9.2,-,N/A,,Clear,360,2013-06-14 21:10:00
4:30 PM,82.4,57.2,42,29.98,10.0,North,9.2,-,N/A,,Clear,10,2013-06-14 21:30:00
4:50 PM,82.4,57.2,42,29.98,10.0,NNE,8.1,-,N/A,,Clear,30,2013-06-14 21:50:00
5:10 PM,82.4,57.2,42,29.98,10.0,North,9.2,-,N/A,,Clear,10,2013-06-14 22:10:00
5:30 PM,82.4,59.0,45,29.98,10.0,North,10.4,-,N/A,,Clear,10,2013-06-14 22:30:00
5:50 PM,82.4,59.0,45,29.98,10.0,NNE,10.4,-,N/A,,Clear,20,2013-06-14 22:50:00
6:10 PM,80.6,59.0,48,29.98,10.0,NNE,10.4,-,N/A,,Clear,30,2013-06-14 23:10:00
6:30 PM,80.6,59.0,48,29.98,10.0,NNE,8.1,-,N/A,,Clear,30,2013-06-14 23:30:00
6:50 PM,80.6,59.0,48,29.99,10.0,ENE,10.4,-,N/A,,Clear,60,2013-06-14 23:50:00
7:10 PM,78.8,59.0,51,29.99,10.0,NE,6.9,-,N/A,,Clear,50,2013-06-15 00:10:00
7:30 PM,77.0,59.0,54,29.99,10.0,ENE,5.8,-,N/A,,Clear,60,2013-06-15 00:30:00
7:50 PM,75.2,59.0,57,29.99,10.0,NE,4.6,-,N/A,,Clear,50,2013-06-15 00:50:00
8:10 PM,75.2,59.0,57,29.99,10.0,NNE,4.6,-,N/A,,Clear,30,2013-06-15 01:10:00
8:30 PM,73.4,62.6,69,29.99,10.0,NE,4.6,-,N/A,,Clear,40,2013-06-15 01:30:00
8:50 PM,71.6,60.8,69,29.99,10.0,Calm,Calm,-,N/A,,Clear,0,2013-06-15 01:50:00
9:10 PM,71.6,62.6,73,30.00,10.0,Calm,Calm,-,N/A,,Clear,0,2013-06-15 02:10:00
9:30 PM,69.8,62.6,78,30.00,10.0,Calm,Calm,-,N/A,,Clear,0,2013-06-15 02:30:00
9:50 PM,69.8,60.8,73,30.01,10.0,Calm,Calm,-,N/A,,Clear,0,2013-06-15 02:50:00
10:10 PM,66.2,62.6,88,30.02,10.0,Calm,Calm,-,N/A,,Clear,0,2013-06-15 03:10:00
10:30 PM,68.0,62.6,83,30.02,10.0,Calm,Calm,-,N/A,,Clear,0,2013-06-15 03:30:00
10:50 PM,66.2,62.6,88,30.01,10.0,Calm,Calm,-,N/A,,Clear,0,2013-06-15 03:50:00
11:10 PM,66.2,62.6,88,30.02,10.0,WNW,3.5,-,N/A,,Clear,300,2013-06-15 04:10:00
11:30 PM,66.2,62.6,88,30.03,10.0,Calm,Calm,-,N/A,,Clear,0,2013-06-15 04:30:00
11:50 PM,66.2,62.6,88,30.04,10.0,Calm,Calm,-,N/A,,Clear,0,2013-06-15 04:50:00